Strait of Georgia - south of Nanaimo: Past 24 Hour Conditions

 

South Moresby - 46147

12:00 PM PDT 21 September 2018Buoy position: 51.83N 131.23W
Disclaimer

This table is a summary of hourly weather conditions for the past 24 hours.
Please note that these observations might not always be representative of weather conditions over their associated marine area.

Date / Time
(PDT)
Wind(knots) Wave height(m) Wave period(s) Pressure(kPa) Air tempC) Water tempC)
21 September 2018
12:00 NNE 14 gust 16 1.1 8.0 100.9 14 13
11:00 N 16 gust 18 1.2 6.0 100.9 14 13
10:00 N 18 gust 21 1.3 7.0 100.9 13 13
9:00 N 18 gust 21 1.3 8.0 100.9 13 13
8:00 N 19 gust 23 1.4 8.0 100.9 13 12
7:00 NNE 19 gust 23 1.4 8.0 100.9 13 12
6:00 NNE 18 gust 21 1.5 8.0 101.0 13 13
5:00 N 16 gust 19 1.4 8.0 101.0 13 13
4:00 N 16 gust 19 1.5 8.0 101.1 13 14
3:00 N 12 gust 16 1.7 7.0 101.2 13 14
2:00 N 12 gust 14 2.0 7.0 101.2 13 14
1:00 NNE 8 gust 12 1.8 7.0 101.3 13 14
0:00 ENE 10 gust 12 1.6 6.0 101.4 13 14
20 September 2018
23:00 NE 12 gust 14 1.5 6.0 101.4 13 14
22:00 ENE 12 gust 14 1.1 5.0 101.4 13 14
21:00 E 14 gust 16 1.0 5.0 101.4 13 14
20:00 E 12 gust 16 0.9 5.0 101.5 13 14
19:00 E 12 gust 14 1.0 5.0 101.5 13 14
18:00 E 12 gust 14 0.9 5.0 101.5 13 14
17:00 E 10 gust 12 1.0 14.0 101.5 13 14
16:00 ESE 14 gust 16 0.9 16.0 101.5 13 14
15:00 ESE 4 gust 6 0.9 14.0 101.5 13 14
14:00 SE 6 gust 8 1.0 6.0 101.5 13 14
13:00 SE 12 gust 14 1.0 14.0 101.5 13 14
12:00 SE 12 gust 14 1.0 14.0 101.5 14 14

Zoom-in to make a selection

Map of Pacific - South Coast marine weather areas South Nomad - 46036 Sentry Shoal - 46131 South Brooks - 46132 Halibut Bank - 46146 South Moresby - 46147 South Hecate Strait - 46185 West Sea Otter - 46204 La Perouse Bank - 46206 East Dellwood - 46207 Discovery Island Esquimalt Harbour Kelp Reefs Malahat Race Rocks Lightstation Saturna Island Sheringham Point University of Victoria Victoria Gonzales Victoria Int'l Airport Ballenas Islands Campbell River Airport Comox Airport Entrance Island Fanny Island Nanaimo Airport Port Hardy Airport Sisters Islets Estevan Point Port Alberni Sartine Island Solander Island Tofino Airport Grief Point Howe Sound - Pam Rocks Powell River Airport Sechelt Squamish Airport Cape St.James Bella Bella Airport Bella Coola Airport Cathedral Point Herbert Island Point Atkinson Sand Heads Lightstation Tsawwassen Ferry Terminal Vancouver Int'l Airport Vancouver Harbour West Vancouver
Legend:
buoy Buoy
land station Land Station

Pacific - South Coast Area

Another Region

What we are doing

Features

Follow us on Twitter!

Get timely local #weather alerts directly to your Twitter feed

Be Air Aware

Be Air Aware

Be weather wise! 

Be weather wise!

Date modified: